Time;durP1;ratioP1;P1;durP2;ratioP2;P2;SDS_P1;SDS_P2;PMS_P1;PMS_P2;Temp;Humidity;BMP_temperature;BMP_pressure;BME280_temperature;BME280_humidity;BME280_pressure;Samples;Min_cycle;Max_cycle;Signal;HPM_P1;HPM_P2
2023/03/22 00:01:11;;;;;;;14.82;6.00;;;10.10;99.90;;;;;;6209789;23;20012;-56
2023/03/22 00:03:37;;;;;;;14.13;5.38;;;10.10;99.90;;;;;;6208953;23;20023;-58
2023/03/22 00:06:04;;;;;;;16.58;7.10;;;10.10;99.90;;;;;;6211051;23;20011;-60
2023/03/22 00:08:29;;;;;;;12.27;5.45;;;10.10;99.90;;;;;;6183496;23;20020;-60
2023/03/22 00:10:55;;;;;;;13.30;5.50;;;10.10;99.90;;;;;;6208669;23;20594;-59
2023/03/22 00:13:21;;;;;;;17.05;6.38;;;10.00;99.90;;;;;;6210264;23;20015;-59
2023/03/22 00:15:47;;;;;;;12.75;5.03;;;10.00;99.90;;;;;;6211540;23;20034;-59
2023/03/22 00:18:18;;;;;;;17.65;6.22;;;10.00;99.90;;;;;;6210619;23;20087;-61
2023/03/22 00:20:48;;;;;;;13.27;5.50;;;10.00;99.90;;;;;;6210942;23;20004;-60
2023/03/22 00:23:14;;;;;;;11.75;4.38;;;9.90;99.90;;;;;;6208075;23;20012;-56
2023/03/22 00:25:40;;;;;;;14.98;4.65;;;9.90;99.90;;;;;;6209557;23;20434;-58
2023/03/22 00:28:06;;;;;;;16.48;4.60;;;9.90;99.90;;;;;;6210432;23;20128;-59
2023/03/22 00:30:31;;;;;;;12.50;4.00;;;9.90;99.90;;;;;;6235328;22;20013;-58
2023/03/22 00:32:57;;;;;;;10.70;4.03;;;9.90;99.90;;;;;;6209574;23;20012;-58
2023/03/22 00:35:23;;;;;;;10.30;3.47;;;9.90;99.90;;;;;;6210961;23;20020;-54
2023/03/22 00:37:50;;;;;;;11.27;3.45;;;9.90;99.90;;;;;;6209312;23;20071;-56
2023/03/22 00:40:16;;;;;;;11.95;3.38;;;9.80;99.90;;;;;;6208796;23;20019;-57
2023/03/22 00:42:42;;;;;;;10.98;3.22;;;9.90;99.90;;;;;;6211358;23;20009;-57
2023/03/22 00:45:10;;;;;;;14.57;3.17;;;9.80;99.90;;;;;;6208984;23;20013;-56
2023/03/22 00:47:35;;;;;;;13.07;3.00;;;9.80;99.90;;;;;;6210663;23;20078;-62
2023/03/22 00:50:01;;;;;;;12.43;3.20;;;9.80;99.90;;;;;;6210256;23;20088;-59
2023/03/22 00:52:28;;;;;;;15.73;3.65;;;9.80;99.90;;;;;;6210667;23;20024;-59
2023/03/22 00:54:54;;;;;;;15.75;3.08;;;9.90;99.90;;;;;;6210585;23;20070;-60
2023/03/22 00:57:20;;;;;;;11.48;3.45;;;9.80;99.90;;;;;;6208552;23;20020;-59
2023/03/22 00:59:47;;;;;;;9.25;2.88;;;9.80;99.90;;;;;;6210008;23;20096;-57
2023/03/22 01:02:13;;;;;;;10.38;2.70;;;9.80;99.90;;;;;;6208290;23;20016;-56
2023/03/22 01:04:46;;;;;;;9.80;2.75;;;9.80;99.90;;;;;;6207739;23;20016;-59
2023/03/22 01:07:20;;;;;;;9.18;2.47;;;9.80;99.90;;;;;;6210623;23;20430;-59
2023/03/22 01:09:50;;;;;;;8.98;2.35;;;9.80;99.90;;;;;;6207613;23;20052;-58
2023/03/22 01:12:16;;;;;;;12.13;3.28;;;9.80;99.90;;;;;;6208037;23;20052;-57
2023/03/22 01:14:42;;;;;;;11.25;2.30;;;9.70;99.90;;;;;;6208177;23;20016;-54
2023/03/22 01:17:09;;;;;;;14.20;2.80;;;9.80;99.90;;;;;;6209158;23;20017;-58
2023/03/22 01:19:36;;;;;;;13.40;2.80;;;9.70;99.90;;;;;;6209558;23;20013;-59
2023/03/22 01:22:03;;;;;;;15.45;2.60;;;9.70;99.90;;;;;;6207778;23;20039;-58
2023/03/22 01:24:29;;;;;;;11.05;2.50;;;9.70;99.90;;;;;;6207649;23;20092;-59
2023/03/22 01:26:55;;;;;;;10.55;2.63;;;9.70;99.90;;;;;;6210282;23;20056;-60
2023/03/22 01:29:21;;;;;;;12.73;2.63;;;9.70;99.90;;;;;;6208162;23;20036;-59
2023/03/22 01:31:47;;;;;;;11.98;2.30;;;9.70;99.90;;;;;;6210034;23;20524;-60
2023/03/22 01:34:13;;;;;;;10.82;2.42;;;9.70;99.90;;;;;;6208995;23;20017;-59
2023/03/22 01:36:39;;;;;;;12.80;4.28;;;9.70;99.90;;;;;;6209576;23;20333;-58
2023/03/22 01:39:04;;;;;;;9.93;2.08;;;9.60;99.90;;;;;;6208022;23;20100;-58
2023/03/22 01:41:33;;;;;;;10.38;2.75;;;9.60;99.90;;;;;;6208501;23;20286;-59
2023/03/22 01:44:18;;;;;;;13.35;3.03;;;9.60;99.90;;;;;;6208662;23;20016;-57
2023/03/22 01:46:45;;;;;;;14.18;2.60;;;9.60;99.90;;;;;;6209240;23;20012;-58
2023/03/22 01:49:33;;;;;;;10.65;2.50;;;9.50;99.90;;;;;;6207659;23;20016;-56
2023/03/22 01:52:02;;;;;;;13.38;2.38;;;9.50;99.90;;;;;;6209032;23;20027;-57
2023/03/22 01:54:44;;;;;;;16.90;3.95;;;9.50;99.90;;;;;;6208774;23;20355;-58
2023/03/22 01:57:10;;;;;;;9.02;2.40;;;9.50;99.90;;;;;;6207792;23;20016;-57
2023/03/22 01:59:36;;;;;;;9.60;2.28;;;9.50;99.90;;;;;;6207498;23;20024;-55
2023/03/22 02:02:03;;;;;;;11.30;2.10;;;9.50;99.90;;;;;;6208110;23;20019;-62
2023/03/22 02:04:34;;;;;;;12.55;2.45;;;9.50;99.90;;;;;;6208406;23;20417;-61
2023/03/22 02:07:08;;;;;;;11.40;1.80;;;9.50;99.90;;;;;;6209008;23;20008;-59
2023/03/22 02:09:41;;;;;;;12.07;2.58;;;9.50;99.90;;;;;;6209079;23;20008;-60
2023/03/22 02:12:25;;;;;;;10.02;2.13;;;9.50;99.90;;;;;;6206923;23;20056;-57
2023/03/22 02:15:23;;;;;;;12.23;3.08;;;9.50;99.90;;;;;;6207763;23;20511;-59
2023/03/22 02:18:05;;;;;;;9.20;2.45;;;9.50;99.90;;;;;;6209837;23;20021;-57
2023/03/22 02:20:49;;;;;;;10.50;2.50;;;9.50;99.90;;;;;;6206521;23;20406;-60
2023/03/22 02:23:58;;;;;;;10.50;2.10;;;9.60;99.90;;;;;;6208905;23;20021;-57
2023/03/22 02:26:42;;;;;;;14.05;2.58;;;9.60;99.90;;;;;;6209242;23;20009;-58
2023/03/22 02:29:14;;;;;;;9.05;2.20;;;9.60;99.90;;;;;;6207930;23;20020;-59
2023/03/22 02:32:16;;;;;;;12.45;2.45;;;9.60;99.90;;;;;;6206659;23;20024;-57
2023/03/22 02:35:05;;;;;;;7.50;1.92;;;9.60;99.90;;;;;;6208446;23;20016;-59
2023/03/22 02:38:09;;;;;;;11.05;1.95;;;9.70;99.90;;;;;;6209884;23;20016;-56
2023/03/22 02:40:52;;;;;;;11.88;2.30;;;9.70;99.90;;;;;;6199304;23;20357;-57
2023/03/22 02:43:37;;;;;;;9.68;1.83;;;9.70;99.90;;;;;;6209301;23;20421;-56
2023/03/22 02:46:11;;;;;;;10.38;1.90;;;9.70;99.90;;;;;;6208090;23;20039;-59
2023/03/22 02:48:52;;;;;;;8.30;1.67;;;9.70;99.90;;;;;;6208881;23;20066;-57
2023/03/22 02:51:46;;;;;;;10.48;2.15;;;9.70;99.90;;;;;;6208881;23;20016;-56
2023/03/22 02:54:25;;;;;;;10.80;2.20;;;9.70;99.90;;;;;;6199082;23;20464;-58
2023/03/22 02:57:01;;;;;;;9.30;2.03;;;9.70;99.90;;;;;;6211977;23;20014;-57
2023/03/22 02:59:31;;;;;;;11.48;2.72;;;9.70;99.90;;;;;;6211075;23;20402;-56
2023/03/22 03:02:01;;;;;;;8.77;2.30;;;9.70;99.90;;;;;;6213072;23;20009;-58
2023/03/22 03:04:35;;;;;;;12.13;2.35;;;9.80;99.90;;;;;;6211273;23;20013;-57
2023/03/22 03:07:06;;;;;;;10.07;2.03;;;9.80;99.90;;;;;;6212947;23;20020;-56
2023/03/22 03:09:32;;;;;;;8.77;1.80;;;9.80;99.90;;;;;;6210773;23;20077;-56
2023/03/22 03:11:58;;;;;;;13.30;2.42;;;9.80;99.90;;;;;;6211194;23;20056;-58
2023/03/22 03:14:27;;;;;;;9.65;2.65;;;9.80;99.90;;;;;;6212960;23;20418;-57
2023/03/22 03:17:12;;;;;;;13.13;3.00;;;9.90;99.90;;;;;;6212850;23;20454;-58
2023/03/22 03:19:49;;;;;;;10.45;2.38;;;9.90;99.90;;;;;;6212080;23;20449;-56
2023/03/22 03:22:44;;;;;;;8.40;2.08;;;9.90;99.90;;;;;;6211031;23;20087;-57
2023/03/22 03:25:37;;;;;;;9.75;2.38;;;9.90;99.90;;;;;;6212728;23;20009;-56
2023/03/22 03:28:08;;;;;;;11.25;2.90;;;9.90;99.90;;;;;;6212677;23;20012;-57
2023/03/22 03:30:52;;;;;;;12.52;2.40;;;9.90;99.90;;;;;;6212889;23;20009;-56
2023/03/22 03:33:23;;;;;;;8.93;2.08;;;9.90;99.90;;;;;;6210905;23;20012;-57
2023/03/22 03:35:55;;;;;;;17.13;2.72;;;9.90;99.90;;;;;;6210889;23;20020;-58
2023/03/22 03:38:25;;;;;;;14.80;2.63;;;9.90;99.90;;;;;;6212920;23;20017;-57
2023/03/22 03:41:05;;;;;;;13.88;2.63;;;9.90;99.90;;;;;;6212806;23;20469;-57
2023/03/22 03:43:32;;;;;;;12.32;2.10;;;9.90;99.90;;;;;;6214327;23;20092;-56
2023/03/22 03:45:59;;;;;;;12.43;2.15;;;9.90;99.90;;;;;;6214515;23;20016;-55
2023/03/22 03:48:31;;;;;;;16.45;2.70;;;9.90;99.90;;;;;;6214034;23;20083;-57
2023/03/22 03:50:59;;;;;;;11.85;2.25;;;9.90;99.90;;;;;;6215114;23;20385;-56
2023/03/22 03:53:24;;;;;;;10.02;2.30;;;9.90;99.90;;;;;;6212459;23;20335;-57
2023/03/22 03:55:50;;;;;;;9.75;2.33;;;9.90;99.90;;;;;;6212874;23;20035;-56
2023/03/22 03:58:16;;;;;;;17.30;3.65;;;9.90;99.90;;;;;;6214560;23;20556;-58
2023/03/22 04:00:42;;;;;;;9.45;2.00;;;9.90;99.90;;;;;;6214422;23;20354;-58
2023/03/22 04:03:08;;;;;;;8.90;2.08;;;9.90;99.90;;;;;;6214530;23;20009;-57
2023/03/22 04:05:34;;;;;;;10.35;2.30;;;9.90;99.90;;;;;;6212744;23;20017;-56
2023/03/22 04:08:00;;;;;;;7.95;2.45;;;9.90;99.90;;;;;;6212377;23;20091;-59
2023/03/22 04:10:25;;;;;;;10.77;2.53;;;9.80;99.90;;;;;;6214103;23;20012;-58
2023/03/22 04:12:51;;;;;;;16.85;2.63;;;9.80;99.90;;;;;;6214140;23;20013;-58
2023/03/22 04:15:17;;;;;;;11.45;2.63;;;9.80;99.90;;;;;;6213875;23;20092;-56
2023/03/22 04:17:43;;;;;;;14.07;3.03;;;9.80;99.90;;;;;;6213615;23;20024;-58
2023/03/22 04:20:11;;;;;;;10.88;3.13;;;9.80;99.90;;;;;;6213622;23;20020;-58
2023/03/22 04:22:37;;;;;;;11.57;3.22;;;9.80;99.90;;;;;;6213900;23;20016;-58
2023/03/22 04:25:12;;;;;;;10.85;3.10;;;9.80;99.90;;;;;;6213740;23;20017;-56
2023/03/22 04:27:39;;;;;;;12.48;3.72;;;9.80;99.90;;;;;;6213871;23;20016;-56
2023/03/22 04:30:09;;;;;;;9.93;3.58;;;9.70;99.90;;;;;;6213300;23;20021;-57
2023/03/22 04:32:34;;;;;;;12.30;3.28;;;9.70;99.90;;;;;;6213570;23;20024;-57
2023/03/22 04:35:00;;;;;;;10.27;3.83;;;9.70;99.90;;;;;;6211979;23;20013;-59
2023/03/22 04:37:26;;;;;;;10.60;3.65;;;9.70;99.90;;;;;;6213502;23;20335;-57
2023/03/22 04:39:52;;;;;;;10.38;3.60;;;9.70;99.90;;;;;;6214021;23;20013;-57
2023/03/22 04:42:19;;;;;;;12.25;3.72;;;9.70;99.90;;;;;;6211888;23;20012;-57
2023/03/22 04:44:45;;;;;;;11.40;4.03;;;9.70;99.90;;;;;;6213909;23;20012;-57
2023/03/22 04:47:11;;;;;;;11.27;3.95;;;9.70;99.90;;;;;;6211710;23;20019;-57
2023/03/22 04:49:37;;;;;;;10.27;4.60;;;9.70;99.90;;;;;;6213721;23;20460;-56
2023/03/22 04:52:02;;;;;;;8.43;3.75;;;9.70;99.90;;;;;;6213361;23;20012;-56
2023/03/22 04:54:28;;;;;;;11.27;4.15;;;9.70;99.90;;;;;;6213378;23;20091;-57
2023/03/22 04:56:54;;;;;;;11.23;3.55;;;9.80;99.90;;;;;;6213488;23;20017;-57
2023/03/22 04:59:20;;;;;;;19.05;4.13;;;9.70;99.90;;;;;;6211424;23;20056;-56
2023/03/22 05:01:50;;;;;;;11.15;3.90;;;9.80;99.90;;;;;;6211684;23;20147;-58
2023/03/22 05:04:16;;;;;;;12.77;3.75;;;9.70;99.90;;;;;;6213211;23;20083;-56
2023/03/22 05:06:43;;;;;;;12.00;4.38;;;9.70;99.90;;;;;;6213197;23;20023;-56
2023/03/22 05:09:09;;;;;;;11.02;4.20;;;9.70;99.90;;;;;;6211344;23;20017;-58
2023/03/22 05:11:35;;;;;;;12.15;4.30;;;9.70;99.90;;;;;;6211834;23;20088;-57
2023/03/22 05:14:01;;;;;;;11.88;4.10;;;9.70;99.90;;;;;;6213389;23;20016;-58
2023/03/22 05:16:26;;;;;;;12.63;4.20;;;9.70;99.90;;;;;;6211573;23;20075;-57
2023/03/22 05:18:55;;;;;;;14.63;4.93;;;9.70;99.90;;;;;;6211282;23;20020;-57
2023/03/22 05:21:26;;;;;;;10.48;4.80;;;9.80;99.90;;;;;;6213403;23;20012;-58
2023/03/22 05:23:54;;;;;;;12.15;5.82;;;9.80;99.90;;;;;;6213000;23;20009;-57
2023/03/22 05:26:23;;;;;;;11.50;5.35;;;9.70;99.90;;;;;;6213298;23;20009;-57
2023/03/22 05:28:50;;;;;;;10.80;6.32;;;9.70;99.90;;;;;;6211130;23;20016;-56
2023/03/22 05:31:16;;;;;;;14.75;6.28;;;9.80;99.90;;;;;;6212938;23;20035;-56
2023/03/22 05:33:45;;;;;;;13.43;6.28;;;9.80;99.90;;;;;;6213309;23;20337;-57
2023/03/22 05:36:11;;;;;;;16.92;6.30;;;9.80;99.90;;;;;;6211501;23;20019;-57
2023/03/22 05:38:37;;;;;;;11.70;6.30;;;9.80;99.90;;;;;;6211270;23;20088;-56
2023/03/22 05:41:03;;;;;;;14.73;6.82;;;9.80;99.90;;;;;;6211631;23;20043;-56
2023/03/22 05:43:29;;;;;;;14.00;6.93;;;9.80;99.90;;;;;;6211417;23;20016;-58
2023/03/22 05:45:54;;;;;;;13.77;6.50;;;9.80;99.90;;;;;;6211493;23;20075;-57
2023/03/22 05:48:20;;;;;;;16.45;7.45;;;9.90;99.90;;;;;;6211076;23;20232;-56
2023/03/22 05:50:46;;;;;;;16.92;7.38;;;9.90;99.90;;;;;;6212335;23;20050;-58
2023/03/22 05:53:12;;;;;;;16.60;7.90;;;9.90;99.90;;;;;;6212915;23;20335;-58
2023/03/22 05:55:38;;;;;;;14.32;7.03;;;9.90;99.90;;;;;;6210956;23;20012;-58
2023/03/22 05:58:04;;;;;;;16.10;8.35;;;9.90;99.90;;;;;;6212841;23;20018;-58
2023/03/22 06:00:32;;;;;;;15.43;8.75;;;10.00;99.90;;;;;;6211900;23;20012;-58
2023/03/22 06:03:04;;;;;;;18.23;8.18;;;10.00;99.90;;;;;;6211795;23;20024;-57
2023/03/22 06:05:31;;;;;;;16.80;9.35;;;10.00;99.90;;;;;;6235473;23;20311;-59
2023/03/22 06:07:58;;;;;;;17.95;8.13;;;10.00;99.90;;;;;;6212625;23;20023;-58
2023/03/22 06:10:25;;;;;;;16.42;8.43;;;10.00;99.90;;;;;;6212913;23;20458;-56
2023/03/22 06:12:52;;;;;;;17.05;9.63;;;10.00;99.90;;;;;;6212572;23;20362;-57
2023/03/22 06:15:17;;;;;;;16.45;8.38;;;10.00;99.90;;;;;;6211704;23;20426;-57
2023/03/22 06:17:43;;;;;;;16.00;9.02;;;10.00;99.90;;;;;;6211336;23;20051;-57
2023/03/22 06:20:11;;;;;;;23.02;9.35;;;10.00;99.90;;;;;;6210768;23;20016;-56
2023/03/22 06:22:37;;;;;;;18.73;9.30;;;10.00;99.90;;;;;;6212779;23;20062;-58
2023/03/22 06:25:05;;;;;;;21.85;9.15;;;10.00;99.90;;;;;;6211684;23;20013;-55
2023/03/22 06:27:31;;;;;;;20.40;10.00;;;10.10;99.90;;;;;;6210423;23;20023;-55
2023/03/22 06:29:57;;;;;;;18.73;10.20;;;10.10;99.90;;;;;;6209595;23;20021;-56
2023/03/22 06:32:23;;;;;;;21.30;9.93;;;10.10;99.90;;;;;;6209697;23;20088;-56
2023/03/22 06:34:54;;;;;;;19.08;10.15;;;10.10;99.90;;;;;;6209990;23;20020;-54
2023/03/22 06:37:21;;;;;;;18.02;9.82;;;10.10;99.90;;;;;;6234235;23;20090;-56
2023/03/22 06:39:47;;;;;;;22.42;11.05;;;10.10;99.90;;;;;;6209838;23;20016;-56
2023/03/22 06:42:13;;;;;;;18.98;11.20;;;10.20;99.90;;;;;;6210606;23;20468;-58
2023/03/22 06:44:41;;;;;;;19.95;10.00;;;10.20;99.90;;;;;;6210044;23;20374;-56
2023/03/22 06:47:07;;;;;;;19.25;10.85;;;10.20;99.90;;;;;;6210934;23;20012;-55
2023/03/22 06:49:33;;;;;;;16.77;10.45;;;10.30;99.90;;;;;;6211867;23;20016;-57
2023/03/22 06:51:59;;;;;;;19.88;10.48;;;10.30;99.90;;;;;;6212256;23;20096;-55
2023/03/22 06:54:25;;;;;;;23.30;11.90;;;10.30;99.90;;;;;;6211487;23;20020;-56
2023/03/22 06:56:51;;;;;;;22.63;12.30;;;10.30;99.90;;;;;;6212052;23;20012;-55
2023/03/22 06:59:17;;;;;;;20.80;11.00;;;10.30;99.90;;;;;;6209284;23;20345;-56
2023/03/22 07:01:42;;;;;;;21.83;11.35;;;10.30;99.90;;;;;;6183487;23;20027;-57
2023/03/22 07:04:08;;;;;;;20.02;11.20;;;10.30;99.90;;;;;;6211435;23;20044;-56
2023/03/22 07:06:34;;;;;;;24.33;11.88;;;10.30;99.90;;;;;;6234185;23;20012;-58
2023/03/22 07:09:01;;;;;;;17.13;10.75;;;10.40;99.90;;;;;;6209125;23;20478;-55
2023/03/22 07:11:27;;;;;;;19.38;10.15;;;10.40;99.90;;;;;;6211808;23;20016;-54
2023/03/22 07:13:53;;;;;;;17.55;11.02;;;10.40;99.90;;;;;;6211238;23;20019;-59
2023/03/22 07:16:19;;;;;;;16.98;10.20;;;10.40;99.90;;;;;;6207565;23;20020;-55
2023/03/22 07:18:45;;;;;;;15.52;10.25;;;10.40;99.90;;;;;;6210514;23;20025;-56
2023/03/22 07:21:11;;;;;;;21.42;9.77;;;10.40;99.90;;;;;;6211952;23;20393;-56
2023/03/22 07:23:37;;;;;;;19.42;10.15;;;10.40;99.90;;;;;;6211409;23;20524;-56
2023/03/22 07:26:03;;;;;;;16.02;9.55;;;10.40;99.90;;;;;;6214871;23;20040;-55
2023/03/22 07:28:29;;;;;;;19.67;9.35;;;10.50;99.90;;;;;;6214210;23;20016;-59
2023/03/22 07:31:01;;;;;;;20.70;9.60;;;10.50;99.90;;;;;;6214355;23;20046;-55
2023/03/22 07:33:27;;;;;;;20.45;9.07;;;10.50;99.90;;;;;;6213883;23;20067;-56
2023/03/22 07:35:53;;;;;;;16.00;9.02;;;10.60;99.90;;;;;;6212481;23;20347;-55
2023/03/22 07:38:19;;;;;;;19.10;9.05;;;10.60;99.90;;;;;;6212914;23;20087;-57
2023/03/22 07:40:44;;;;;;;15.70;8.60;;;10.70;99.90;;;;;;6212796;23;20021;-55
2023/03/22 07:43:12;;;;;;;17.58;8.80;;;10.70;99.90;;;;;;6188289;23;20012;-57
2023/03/22 07:45:39;;;;;;;17.80;9.02;;;10.70;99.90;;;;;;6214851;23;20028;-55
2023/03/22 07:48:08;;;;;;;19.55;9.73;;;10.70;99.90;;;;;;6214013;23;20023;-55
2023/03/22 07:50:34;;;;;;;18.38;8.60;;;10.70;99.90;;;;;;6212976;23;20449;-54
2023/03/22 07:53:00;;;;;;;16.35;8.40;;;10.70;99.90;;;;;;6213297;23;20013;-55
2023/03/22 07:55:25;;;;;;;15.55;7.72;;;10.70;99.90;;;;;;6214589;23;20342;-58
2023/03/22 07:57:52;;;;;;;15.32;7.97;;;10.70;99.90;;;;;;6211914;23;20020;-57
2023/03/22 08:00:18;;;;;;;17.05;6.90;;;10.70;99.90;;;;;;6212075;23;20393;-55
2023/03/22 08:02:44;;;;;;;12.35;6.90;;;10.80;99.90;;;;;;6214609;23;20461;-56
2023/03/22 08:05:10;;;;;;;15.02;6.07;;;10.80;99.90;;;;;;6214030;23;20012;-54
2023/03/22 08:07:36;;;;;;;15.57;6.65;;;10.80;99.90;;;;;;6214150;23;20013;-57
2023/03/22 08:10:02;;;;;;;15.45;6.95;;;10.90;99.90;;;;;;6212111;23;20020;-55
2023/03/22 08:12:28;;;;;;;15.93;6.55;;;10.90;99.90;;;;;;6213843;23;20275;-58
2023/03/22 08:14:54;;;;;;;17.75;7.13;;;10.90;99.90;;;;;;6187077;23;20019;-55
2023/03/22 08:17:20;;;;;;;14.55;6.55;;;11.00;99.90;;;;;;6212051;23;20397;-57
2023/03/22 08:19:46;;;;;;;12.23;5.93;;;11.00;99.90;;;;;;6186305;23;20012;-55
2023/03/22 08:22:12;;;;;;;13.75;6.13;;;11.00;99.90;;;;;;6213623;23;20450;-56
2023/03/22 08:24:38;;;;;;;14.70;5.40;;;11.00;99.90;;;;;;6186977;23;20019;-57
2023/03/22 08:27:04;;;;;;;12.38;5.68;;;11.10;99.90;;;;;;6211939;23;20013;-59
2023/03/22 08:29:30;;;;;;;12.77;5.43;;;11.20;99.90;;;;;;6211486;23;20103;-56
2023/03/22 08:32:00;;;;;;;13.00;5.15;;;11.10;99.90;;;;;;6185834;23;20013;-54
2023/03/22 08:34:30;;;;;;;16.88;5.78;;;11.20;99.90;;;;;;6213346;23;20144;-56
2023/03/22 08:36:55;;;;;;;12.77;5.53;;;11.20;99.90;;;;;;6212819;23;20013;-57
2023/03/22 08:39:22;;;;;;;18.15;6.55;;;11.30;99.90;;;;;;6212603;23;20541;-57
2023/03/22 08:41:48;;;;;;;12.55;5.53;;;11.30;99.90;;;;;;6186094;23;20048;-58
2023/03/22 08:44:14;;;;;;;12.82;5.95;;;11.30;99.90;;;;;;6211274;23;20016;-55
2023/03/22 08:46:39;;;;;;;16.98;5.43;;;11.30;99.90;;;;;;6212982;23;20342;-55
2023/03/22 08:49:05;;;;;;;13.98;5.90;;;11.20;99.90;;;;;;6210033;23;20016;-56
2023/03/22 08:51:31;;;;;;;13.38;5.35;;;11.30;99.90;;;;;;6236385;23;20016;-55
2023/03/22 08:53:59;;;;;;;10.45;4.47;;;11.20;99.90;;;;;;6210965;23;20016;-55
2023/03/22 08:56:26;;;;;;;13.60;5.40;;;11.10;99.90;;;;;;6210270;23;20016;-59
2023/03/22 08:58:52;;;;;;;11.65;4.72;;;11.10;99.90;;;;;;6208321;23;20091;-57
2023/03/22 09:01:19;;;;;;;10.45;5.03;;;11.10;99.90;;;;;;6208201;23;20012;-57
2023/03/22 09:03:46;;;;;;;14.52;4.93;;;11.10;99.90;;;;;;6207145;23;20055;-58
2023/03/22 09:06:12;;;;;;;12.80;4.25;;;11.10;99.90;;;;;;6207073;23;20020;-58
2023/03/22 09:08:38;;;;;;;11.00;4.47;;;11.10;99.90;;;;;;6207459;23;20016;-60
2023/03/22 09:11:08;;;;;;;13.95;5.32;;;11.00;99.90;;;;;;6209230;23;20012;-60
2023/03/22 09:13:33;;;;;;;11.25;4.25;;;11.00;99.90;;;;;;6210199;23;20091;-56
2023/03/22 09:15:59;;;;;;;12.57;4.40;;;11.00;99.90;;;;;;6209136;23;20044;-56
2023/03/22 09:18:25;;;;;;;19.02;5.88;;;11.00;99.90;;;;;;6204943;23;20059;-56
2023/03/22 09:20:51;;;;;;;12.00;4.43;;;10.90;99.90;;;;;;6209587;23;20020;-56
2023/03/22 09:23:17;;;;;;;12.68;4.28;;;10.90;99.90;;;;;;6207749;23;20044;-56
2023/03/22 09:25:47;;;;;;;15.75;4.55;;;10.90;99.90;;;;;;6205905;23;20327;-61
2023/03/22 09:28:13;;;;;;;11.65;4.00;;;10.90;99.90;;;;;;6207139;23;20016;-56
2023/03/22 09:30:39;;;;;;;17.30;4.10;;;10.90;99.90;;;;;;6207934;23;20019;-60
2023/03/22 09:33:07;;;;;;;16.85;4.57;;;10.80;99.90;;;;;;6203331;23;20535;-58
2023/03/22 09:35:33;;;;;;;15.23;4.18;;;10.80;99.90;;;;;;6204051;23;20079;-57
2023/03/22 09:37:59;;;;;;;13.88;4.88;;;10.80;99.90;;;;;;6206606;23;20147;-61
2023/03/22 09:40:30;;;;;;;13.35;4.22;;;10.80;99.90;;;;;;6205732;23;20128;-56
2023/03/22 09:43:06;;;;;;;15.38;4.32;;;10.80;99.90;;;;;;6208245;23;20072;-55
2023/03/22 09:45:39;;;;;;;12.80;3.80;;;10.70;99.90;;;;;;6208841;23;20023;-55
2023/03/22 09:48:21;;;;;;;12.68;4.65;;;10.80;99.90;;;;;;6204959;23;20019;-61
2023/03/22 09:50:50;;;;;;;16.83;4.25;;;10.70;99.90;;;;;;6205555;23;20016;-55
2023/03/22 09:53:17;;;;;;;9.80;4.10;;;10.70;99.90;;;;;;6207507;23;20017;-60
2023/03/22 09:55:58;;;;;;;11.30;3.85;;;10.60;99.90;;;;;;6208165;23;20323;-59
2023/03/22 09:58:29;;;;;;;12.40;4.20;;;10.60;99.90;;;;;;6204906;23;20016;-59
2023/03/22 10:01:00;;;;;;;14.93;4.45;;;10.50;99.90;;;;;;6206194;23;20032;-59
2023/03/22 10:03:43;;;;;;;16.15;4.70;;;10.50;99.90;;;;;;6205100;23;20020;-60
2023/03/22 10:06:18;;;;;;;9.90;4.10;;;10.50;99.90;;;;;;6205752;23;20122;-59
2023/03/22 10:09:05;;;;;;;13.48;3.85;;;10.50;99.90;;;;;;6204387;23;20214;-59
2023/03/22 10:11:55;;;;;;;9.23;3.95;;;10.50;99.90;;;;;;6205013;23;20449;-61
2023/03/22 10:14:33;;;;;;;14.57;4.20;;;10.50;99.90;;;;;;6206757;23;20404;-56
2023/03/22 10:17:04;;;;;;;10.93;3.60;;;10.40;99.90;;;;;;6206030;23;20499;-58
2023/03/22 10:19:59;;;;;;;9.20;3.50;;;10.40;99.90;;;;;;6203426;23;20091;-59
2023/03/22 10:22:32;;;;;;;13.50;4.00;;;10.40;99.90;;;;;;6182858;23;20020;-58
2023/03/22 10:25:00;;;;;;;12.75;3.85;;;10.30;99.90;;;;;;6207577;23;20524;-57
2023/03/22 10:27:28;;;;;;;11.50;3.40;;;10.30;99.90;;;;;;6206157;23;20075;-60
2023/03/22 10:30:17;;;;;;;9.25;3.55;;;10.30;99.90;;;;;;6206433;23;20020;-59
2023/03/22 10:32:50;;;;;;;12.40;3.75;;;10.30;99.90;;;;;;6208702;23;20015;-58
2023/03/22 10:35:16;;;;;;;10.43;4.28;;;10.30;99.90;;;;;;6205723;23;20005;-57
2023/03/22 10:37:46;;;;;;;10.50;3.67;;;10.30;99.90;;;;;;6206540;23;20047;-57
2023/03/22 10:40:28;;;;;;;15.40;3.88;;;10.30;99.90;;;;;;6204522;23;20084;-59
2023/03/22 10:42:56;;;;;;;9.95;4.03;;;10.30;99.90;;;;;;6205581;23;20021;-56
2023/03/22 10:45:24;;;;;;;10.43;3.92;;;10.40;99.90;;;;;;6204632;23;20020;-57
2023/03/22 10:48:33;;;;;;;11.20;4.22;;;10.40;99.90;;;;;;6205080;23;20096;-56
2023/03/22 10:51:00;;;;;;;12.60;3.90;;;10.40;99.90;;;;;;6145173;23;20024;-59
2023/03/22 10:53:44;;;;;;;13.70;4.18;;;10.40;99.90;;;;;;6150075;23;20043;-59
2023/03/22 10:56:15;;;;;;;15.25;3.60;;;10.50;99.90;;;;;;6184930;23;20020;-60
2023/03/22 10:58:41;;;;;;;9.05;3.22;;;10.50;99.90;;;;;;6208493;23;20074;-59
2023/03/22 11:01:12;;;;;;;12.55;4.18;;;10.50;99.90;;;;;;6206551;23;20012;-57
2023/03/22 11:03:49;;;;;;;9.68;3.78;;;10.50;99.90;;;;;;6209321;23;20017;-59
2023/03/22 11:06:18;;;;;;;12.00;4.43;;;10.50;99.90;;;;;;6208002;23;20523;-57
2023/03/22 11:08:51;;;;;;;11.50;4.13;;;10.60;99.90;;;;;;6204468;23;20236;-59
2023/03/22 11:11:23;;;;;;;10.98;3.78;;;10.60;99.90;;;;;;6209671;23;20016;-61
2023/03/22 11:14:12;;;;;;;9.93;4.00;;;10.60;99.90;;;;;;6208342;23;20016;-61
2023/03/22 11:17:04;;;;;;;11.15;4.28;;;10.70;99.90;;;;;;6208422;23;20444;-63
2023/03/22 11:19:36;;;;;;;8.10;3.53;;;10.60;99.90;;;;;;6201245;23;20069;-60
2023/03/22 11:22:05;;;;;;;8.32;3.47;;;10.60;99.90;;;;;;6211190;23;20013;-61
2023/03/22 11:24:32;;;;;;;9.20;3.80;;;10.70;99.90;;;;;;6208587;23;20017;-56
2023/03/22 11:27:15;;;;;;;8.18;3.25;;;10.70;99.90;;;;;;6210439;23;20009;-59
2023/03/22 11:29:47;;;;;;;9.40;3.97;;;10.70;99.90;;;;;;6209047;23;20017;-62
2023/03/22 11:32:26;;;;;;;9.55;3.50;;;10.70;99.90;;;;;;6210713;23;20166;-61
2023/03/22 11:35:12;;;;;;;10.00;3.60;;;10.80;99.90;;;;;;6211199;23;20048;-61
2023/03/22 11:37:50;;;;;;;10.65;5.00;;;10.80;99.90;;;;;;6209015;23;20112;-58
2023/03/22 11:40:30;;;;;;;9.88;4.20;;;10.80;99.90;;;;;;6210307;23;20055;-59
2023/03/22 11:43:05;;;;;;;8.00;3.60;;;10.80;99.90;;;;;;6181604;23;20176;-61
2023/03/22 11:45:35;;;;;;;10.68;4.28;;;10.90;99.90;;;;;;6211871;23;20013;-59
2023/03/22 11:48:11;;;;;;;9.65;4.43;;;10.80;99.90;;;;;;6207259;23;20454;-58
2023/03/22 11:50:39;;;;;;;12.38;4.18;;;10.80;99.90;;;;;;6210158;23;20540;-59
2023/03/22 11:53:11;;;;;;;11.75;4.32;;;10.80;99.90;;;;;;6211963;23;20319;-61
2023/03/22 11:55:37;;;;;;;12.75;4.25;;;10.80;99.90;;;;;;6211853;23;20005;-60
2023/03/22 11:58:05;;;;;;;10.35;3.80;;;10.80;99.90;;;;;;6210290;23;20019;-61
2023/03/22 12:00:36;;;;;;;10.02;4.22;;;10.80;99.90;;;;;;6209478;23;20020;-59
2023/03/22 12:03:12;;;;;;;17.55;4.78;;;10.80;99.90;;;;;;6212111;23;20020;-57
2023/03/22 12:05:41;;;;;;;9.98;4.13;;;10.90;99.90;;;;;;6212340;23;20005;-63
2023/03/22 12:08:41;;;;;;;11.20;4.97;;;10.80;99.90;;;;;;6209355;23;20017;-61
2023/03/22 12:11:32;;;;;;;11.05;3.95;;;10.80;99.90;;;;;;6211666;23;20009;-61
2023/03/22 12:14:22;;;;;;;6.72;3.85;;;10.80;99.90;;;;;;6239215;23;20087;-61
2023/03/22 12:17:00;;;;;;;11.07;5.28;;;10.80;99.90;;;;;;6214312;23;20017;-61
2023/03/22 12:19:31;;;;;;;12.10;3.88;;;10.80;99.90;;;;;;6211318;23;20450;-62
2023/03/22 12:21:58;;;;;;;9.85;4.55;;;10.80;99.90;;;;;;6210869;23;20031;-59
2023/03/22 12:24:31;;;;;;;8.80;3.97;;;10.80;99.90;;;;;;6208338;23;20020;-60
2023/03/22 12:27:11;;;;;;;11.40;4.32;;;10.70;99.90;;;;;;6209205;23;20049;-61
2023/03/22 12:29:53;;;;;;;11.43;4.22;;;10.70;99.90;;;;;;6210961;23;20016;-58
2023/03/22 12:32:29;;;;;;;10.38;5.82;;;10.70;99.90;;;;;;6210835;23;20066;-60
2023/03/22 12:34:55;;;;;;;10.27;4.90;;;10.70;99.90;;;;;;6208251;23;20025;-61
2023/03/22 12:37:28;;;;;;;12.20;4.10;;;10.70;99.90;;;;;;6212100;23;20136;-60
2023/03/22 12:40:22;;;;;;;9.77;4.65;;;10.70;99.90;;;;;;6211381;23;20028;-59
2023/03/22 12:43:12;;;;;;;;;;;10.60;99.90;;;;;;6211853;23;20087;-61
2023/03/22 12:45:42;;;;;;;10.23;5.20;;;10.60;99.90;;;;;;6209905;23;19947;-62
2023/03/22 12:48:14;;;;;;;14.02;5.20;;;10.60;99.90;;;;;;6208669;23;20106;-59
2023/03/22 12:50:51;;;;;;;11.27;5.50;;;10.60;99.90;;;;;;6211800;23;20473;-61
2023/03/22 12:53:20;;;;;;;11.35;5.55;;;10.60;99.90;;;;;;6211393;23;20016;-61
2023/03/22 12:55:47;;;;;;;12.52;5.80;;;10.60;99.90;;;;;;6184526;23;20048;-61
2023/03/22 12:58:19;;;;;;;10.13;5.45;;;10.60;99.90;;;;;;6210883;23;20031;-58
2023/03/22 13:00:51;;;;;;;12.52;5.57;;;10.60;99.90;;;;;;6209802;23;20017;-61